sensor_id;sensor_type;location;lat;lon;timestamp;P1;durP1;ratioP1;P2;durP2;ratioP2
44764;SDS011;30484;52.382;5.260;2023-05-10T00:01:05;65.57;;;35.42;;
44764;SDS011;30484;52.382;5.260;2023-05-10T00:03:33;71.70;;;36.38;;
44764;SDS011;30484;52.382;5.260;2023-05-10T00:06:02;69.68;;;37.22;;
44764;SDS011;30484;52.382;5.260;2023-05-10T00:08:30;77.88;;;36.70;;
44764;SDS011;30484;52.382;5.260;2023-05-10T00:10:59;78.47;;;37.63;;
44764;SDS011;30484;52.382;5.260;2023-05-10T00:13:27;69.47;;;35.15;;
44764;SDS011;30484;52.382;5.260;2023-05-10T00:15:55;74.35;;;37.63;;
44764;SDS011;30484;52.382;5.260;2023-05-10T00:18:25;71.75;;;37.33;;
44764;SDS011;30484;52.382;5.260;2023-05-10T00:20:54;75.70;;;37.40;;
44764;SDS011;30484;52.382;5.260;2023-05-10T00:23:22;71.75;;;35.80;;
44764;SDS011;30484;52.382;5.260;2023-05-10T00:25:50;78.90;;;37.05;;
44764;SDS011;30484;52.382;5.260;2023-05-10T00:28:18;75.28;;;36.35;;
44764;SDS011;30484;52.382;5.260;2023-05-10T00:30:46;76.90;;;36.50;;
44764;SDS011;30484;52.382;5.260;2023-05-10T00:33:15;74.88;;;35.72;;
44764;SDS011;30484;52.382;5.260;2023-05-10T00:35:44;90.30;;;37.35;;
44764;SDS011;30484;52.382;5.260;2023-05-10T00:38:13;84.22;;;37.88;;
44764;SDS011;30484;52.382;5.260;2023-05-10T00:40:41;79.43;;;37.60;;
44764;SDS011;30484;52.382;5.260;2023-05-10T00:43:10;88.82;;;38.38;;
44764;SDS011;30484;52.382;5.260;2023-05-10T00:45:38;92.70;;;39.85;;
44764;SDS011;30484;52.382;5.260;2023-05-10T00:48:08;89.90;;;40.17;;
44764;SDS011;30484;52.382;5.260;2023-05-10T00:50:36;96.57;;;40.80;;
44764;SDS011;30484;52.382;5.260;2023-05-10T00:53:07;89.60;;;38.85;;
44764;SDS011;30484;52.382;5.260;2023-05-10T00:55:36;95.70;;;41.55;;
44764;SDS011;30484;52.382;5.260;2023-05-10T00:58:04;95.47;;;41.20;;
44764;SDS011;30484;52.382;5.260;2023-05-10T01:00:33;94.75;;;41.60;;
44764;SDS011;30484;52.382;5.260;2023-05-10T01:03:03;99.20;;;42.92;;
44764;SDS011;30484;52.382;5.260;2023-05-10T01:05:32;95.55;;;43.42;;
44764;SDS011;30484;52.382;5.260;2023-05-10T01:08:00;98.88;;;44.75;;
44764;SDS011;30484;52.382;5.260;2023-05-10T01:10:30;100.55;;;44.38;;
44764;SDS011;30484;52.382;5.260;2023-05-10T01:12:59;99.72;;;46.75;;
44764;SDS011;30484;52.382;5.260;2023-05-10T01:15:28;97.20;;;44.72;;
44764;SDS011;30484;52.382;5.260;2023-05-10T01:17:58;100.97;;;46.33;;
44764;SDS011;30484;52.382;5.260;2023-05-10T01:20:27;103.75;;;47.17;;
44764;SDS011;30484;52.382;5.260;2023-05-10T01:23:19;95.93;;;45.92;;
44764;SDS011;30484;52.382;5.260;2023-05-10T01:30:05;97.03;;;46.30;;
44764;SDS011;30484;52.382;5.260;2023-05-10T01:32:59;109.43;;;48.15;;
44764;SDS011;30484;52.382;5.260;2023-05-10T01:35:42;99.03;;;48.90;;
44764;SDS011;30484;52.382;5.260;2023-05-10T01:38:17;98.95;;;47.45;;
44764;SDS011;30484;52.382;5.260;2023-05-10T01:40:56;107.00;;;50.42;;
44764;SDS011;30484;52.382;5.260;2023-05-10T01:43:37;97.95;;;47.80;;
44764;SDS011;30484;52.382;5.260;2023-05-10T01:46:14;104.22;;;49.65;;
44764;SDS011;30484;52.382;5.260;2023-05-10T01:48:51;111.40;;;50.10;;
44764;SDS011;30484;52.382;5.260;2023-05-10T01:53:54;101.38;;;47.83;;
44764;SDS011;30484;52.382;5.260;2023-05-10T01:56:29;106.55;;;49.67;;
44764;SDS011;30484;52.382;5.260;2023-05-10T01:59:00;104.90;;;48.72;;
44764;SDS011;30484;52.382;5.260;2023-05-10T02:01:37;103.63;;;50.33;;
44764;SDS011;30484;52.382;5.260;2023-05-10T02:04:07;104.30;;;50.20;;
44764;SDS011;30484;52.382;5.260;2023-05-10T02:06:38;100.72;;;48.88;;
44764;SDS011;30484;52.382;5.260;2023-05-10T02:09:09;107.88;;;50.50;;
44764;SDS011;30484;52.382;5.260;2023-05-10T02:11:39;102.68;;;51.20;;
44764;SDS011;30484;52.382;5.260;2023-05-10T02:14:11;106.57;;;51.95;;
44764;SDS011;30484;52.382;5.260;2023-05-10T02:16:41;112.20;;;54.15;;
44764;SDS011;30484;52.382;5.260;2023-05-10T02:19:13;103.32;;;52.67;;
44764;SDS011;30484;52.382;5.260;2023-05-10T02:21:43;103.35;;;51.08;;
44764;SDS011;30484;52.382;5.260;2023-05-10T02:24:14;111.68;;;54.00;;
44764;SDS011;30484;52.382;5.260;2023-05-10T02:26:45;107.45;;;53.47;;
44764;SDS011;30484;52.382;5.260;2023-05-10T02:29:16;100.13;;;52.33;;
44764;SDS011;30484;52.382;5.260;2023-05-10T02:31:47;105.65;;;54.65;;
44764;SDS011;30484;52.382;5.260;2023-05-10T02:34:18;111.72;;;53.97;;
44764;SDS011;30484;52.382;5.260;2023-05-10T02:36:48;102.53;;;53.13;;
44764;SDS011;30484;52.382;5.260;2023-05-10T02:39:18;98.88;;;53.67;;
44764;SDS011;30484;52.382;5.260;2023-05-10T02:41:48;102.45;;;54.25;;
44764;SDS011;30484;52.382;5.260;2023-05-10T02:44:19;99.93;;;54.35;;
44764;SDS011;30484;52.382;5.260;2023-05-10T02:46:50;104.88;;;55.58;;
44764;SDS011;30484;52.382;5.260;2023-05-10T02:49:20;105.00;;;55.80;;
44764;SDS011;30484;52.382;5.260;2023-05-10T02:51:50;104.53;;;55.40;;
44764;SDS011;30484;52.382;5.260;2023-05-10T02:54:27;111.00;;;56.63;;
44764;SDS011;30484;52.382;5.260;2023-05-10T02:57:00;108.65;;;56.92;;
44764;SDS011;30484;52.382;5.260;2023-05-10T02:59:34;104.03;;;57.40;;
44764;SDS011;30484;52.382;5.260;2023-05-10T03:02:03;104.35;;;57.58;;
44764;SDS011;30484;52.382;5.260;2023-05-10T03:04:33;104.13;;;54.63;;
44764;SDS011;30484;52.382;5.260;2023-05-10T03:07:02;111.53;;;57.42;;
44764;SDS011;30484;52.382;5.260;2023-05-10T03:09:31;111.97;;;56.33;;
44764;SDS011;30484;52.382;5.260;2023-05-10T03:12:01;117.35;;;58.90;;
44764;SDS011;30484;52.382;5.260;2023-05-10T03:14:40;118.68;;;57.20;;
44764;SDS011;30484;52.382;5.260;2023-05-10T03:17:22;125.30;;;59.25;;
44764;SDS011;30484;52.382;5.260;2023-05-10T03:20:02;127.75;;;59.60;;
44764;SDS011;30484;52.382;5.260;2023-05-10T03:22:38;134.82;;;59.33;;
44764;SDS011;30484;52.382;5.260;2023-05-10T03:25:13;127.80;;;57.28;;
44764;SDS011;30484;52.382;5.260;2023-05-10T03:27:44;120.55;;;51.97;;
44764;SDS011;30484;52.382;5.260;2023-05-10T03:30:14;116.93;;;55.03;;
44764;SDS011;30484;52.382;5.260;2023-05-10T03:32:43;123.53;;;55.38;;
44764;SDS011;30484;52.382;5.260;2023-05-10T03:35:13;134.27;;;56.65;;
44764;SDS011;30484;52.382;5.260;2023-05-10T03:37:42;129.27;;;55.35;;
44764;SDS011;30484;52.382;5.260;2023-05-10T03:40:10;121.35;;;49.58;;
44764;SDS011;30484;52.382;5.260;2023-05-10T03:42:39;118.93;;;51.88;;
44764;SDS011;30484;52.382;5.260;2023-05-10T03:45:08;128.02;;;54.58;;
44764;SDS011;30484;52.382;5.260;2023-05-10T03:47:37;120.15;;;54.25;;
44764;SDS011;30484;52.382;5.260;2023-05-10T03:50:06;119.57;;;51.60;;
44764;SDS011;30484;52.382;5.260;2023-05-10T03:52:37;109.10;;;51.28;;
44764;SDS011;30484;52.382;5.260;2023-05-10T03:55:06;111.20;;;48.58;;
44764;SDS011;30484;52.382;5.260;2023-05-10T03:57:36;114.05;;;47.65;;
44764;SDS011;30484;52.382;5.260;2023-05-10T04:00:04;114.22;;;53.25;;
44764;SDS011;30484;52.382;5.260;2023-05-10T04:02:34;108.55;;;48.58;;
44764;SDS011;30484;52.382;5.260;2023-05-10T04:05:05;111.75;;;49.60;;
44764;SDS011;30484;52.382;5.260;2023-05-10T04:07:35;106.68;;;48.78;;
44764;SDS011;30484;52.382;5.260;2023-05-10T04:10:09;104.55;;;48.38;;
44764;SDS011;30484;52.382;5.260;2023-05-10T04:12:38;109.22;;;49.40;;
44764;SDS011;30484;52.382;5.260;2023-05-10T04:15:07;105.35;;;48.17;;
44764;SDS011;30484;52.382;5.260;2023-05-10T04:17:36;110.20;;;49.15;;
44764;SDS011;30484;52.382;5.260;2023-05-10T04:20:08;98.70;;;44.88;;
44764;SDS011;30484;52.382;5.260;2023-05-10T04:22:40;96.35;;;45.08;;
44764;SDS011;30484;52.382;5.260;2023-05-10T04:25:13;103.63;;;45.78;;
44764;SDS011;30484;52.382;5.260;2023-05-10T04:27:41;111.47;;;44.75;;
44764;SDS011;30484;52.382;5.260;2023-05-10T04:30:09;100.63;;;44.75;;
44764;SDS011;30484;52.382;5.260;2023-05-10T04:32:41;97.47;;;43.08;;
44764;SDS011;30484;52.382;5.260;2023-05-10T04:35:10;92.90;;;41.17;;
44764;SDS011;30484;52.382;5.260;2023-05-10T04:37:38;91.13;;;39.83;;
44764;SDS011;30484;52.382;5.260;2023-05-10T04:40:07;85.53;;;37.20;;
44764;SDS011;30484;52.382;5.260;2023-05-10T04:42:38;88.97;;;37.83;;
44764;SDS011;30484;52.382;5.260;2023-05-10T04:45:08;78.32;;;35.42;;
44764;SDS011;30484;52.382;5.260;2023-05-10T04:47:37;71.22;;;33.60;;
44764;SDS011;30484;52.382;5.260;2023-05-10T04:50:06;66.38;;;31.75;;
44764;SDS011;30484;52.382;5.260;2023-05-10T04:52:35;60.42;;;29.15;;
44764;SDS011;30484;52.382;5.260;2023-05-10T04:55:04;69.47;;;28.85;;
44764;SDS011;30484;52.382;5.260;2023-05-10T04:57:34;66.38;;;29.33;;
44764;SDS011;30484;52.382;5.260;2023-05-10T05:00:04;62.10;;;28.83;;
44764;SDS011;30484;52.382;5.260;2023-05-10T05:02:35;59.50;;;26.77;;
44764;SDS011;30484;52.382;5.260;2023-05-10T05:05:05;50.45;;;24.30;;
44764;SDS011;30484;52.382;5.260;2023-05-10T05:07:34;42.15;;;22.55;;
44764;SDS011;30484;52.382;5.260;2023-05-10T05:10:06;37.30;;;21.95;;
44764;SDS011;30484;52.382;5.260;2023-05-10T05:12:36;39.60;;;21.13;;
44764;SDS011;30484;52.382;5.260;2023-05-10T05:15:10;38.53;;;20.30;;
44764;SDS011;30484;52.382;5.260;2023-05-10T05:17:42;32.80;;;18.25;;
44764;SDS011;30484;52.382;5.260;2023-05-10T05:20:17;41.83;;;19.45;;
44764;SDS011;30484;52.382;5.260;2023-05-10T05:22:46;31.00;;;17.58;;
44764;SDS011;30484;52.382;5.260;2023-05-10T05:25:14;30.70;;;17.40;;
44764;SDS011;30484;52.382;5.260;2023-05-10T05:27:43;29.02;;;17.17;;
44764;SDS011;30484;52.382;5.260;2023-05-10T05:30:12;32.50;;;17.73;;
44764;SDS011;30484;52.382;5.260;2023-05-10T05:32:41;32.03;;;18.58;;
44764;SDS011;30484;52.382;5.260;2023-05-10T05:35:09;34.58;;;18.25;;
44764;SDS011;30484;52.382;5.260;2023-05-10T05:37:38;33.30;;;18.92;;
44764;SDS011;30484;52.382;5.260;2023-05-10T05:40:07;35.50;;;17.90;;
44764;SDS011;30484;52.382;5.260;2023-05-10T05:42:39;35.92;;;18.02;;
44764;SDS011;30484;52.382;5.260;2023-05-10T05:45:08;34.72;;;19.08;;
44764;SDS011;30484;52.382;5.260;2023-05-10T05:47:41;34.63;;;18.33;;
44764;SDS011;30484;52.382;5.260;2023-05-10T05:50:09;44.90;;;19.77;;
44764;SDS011;30484;52.382;5.260;2023-05-10T05:52:38;36.42;;;18.45;;
44764;SDS011;30484;52.382;5.260;2023-05-10T05:55:07;36.47;;;19.27;;
44764;SDS011;30484;52.382;5.260;2023-05-10T05:57:37;35.72;;;18.38;;
44764;SDS011;30484;52.382;5.260;2023-05-10T06:00:06;40.28;;;18.55;;
44764;SDS011;30484;52.382;5.260;2023-05-10T06:02:36;37.70;;;18.67;;
44764;SDS011;30484;52.382;5.260;2023-05-10T06:05:06;35.20;;;18.08;;
44764;SDS011;30484;52.382;5.260;2023-05-10T06:07:36;29.27;;;17.08;;
44764;SDS011;30484;52.382;5.260;2023-05-10T06:10:04;30.52;;;16.25;;
44764;SDS011;30484;52.382;5.260;2023-05-10T06:12:34;26.83;;;15.02;;
44764;SDS011;30484;52.382;5.260;2023-05-10T06:15:03;28.63;;;15.27;;
44764;SDS011;30484;52.382;5.260;2023-05-10T06:17:32;25.90;;;15.10;;
44764;SDS011;30484;52.382;5.260;2023-05-10T06:20:00;27.23;;;15.50;;
44764;SDS011;30484;52.382;5.260;2023-05-10T06:22:30;25.88;;;15.75;;
44764;SDS011;30484;52.382;5.260;2023-05-10T06:24:58;25.85;;;15.82;;
44764;SDS011;30484;52.382;5.260;2023-05-10T06:27:27;24.30;;;16.35;;
44764;SDS011;30484;52.382;5.260;2023-05-10T06:29:56;25.63;;;16.23;;
44764;SDS011;30484;52.382;5.260;2023-05-10T06:32:37;31.52;;;17.95;;
44764;SDS011;30484;52.382;5.260;2023-05-10T06:35:06;32.65;;;17.60;;
44764;SDS011;30484;52.382;5.260;2023-05-10T06:37:37;30.05;;;17.17;;
44764;SDS011;30484;52.382;5.260;2023-05-10T06:40:06;29.23;;;15.90;;
44764;SDS011;30484;52.382;5.260;2023-05-10T06:42:36;28.77;;;16.77;;
44764;SDS011;30484;52.382;5.260;2023-05-10T06:45:04;25.95;;;15.90;;
44764;SDS011;30484;52.382;5.260;2023-05-10T06:47:34;28.08;;;16.08;;
44764;SDS011;30484;52.382;5.260;2023-05-10T06:50:06;32.42;;;17.58;;
44764;SDS011;30484;52.382;5.260;2023-05-10T06:52:35;32.08;;;17.15;;
44764;SDS011;30484;52.382;5.260;2023-05-10T06:55:05;30.52;;;17.52;;
44764;SDS011;30484;52.382;5.260;2023-05-10T06:57:35;24.40;;;15.65;;
44764;SDS011;30484;52.382;5.260;2023-05-10T07:00:03;28.05;;;15.43;;
44764;SDS011;30484;52.382;5.260;2023-05-10T07:02:35;24.92;;;15.20;;
44764;SDS011;30484;52.382;5.260;2023-05-10T07:05:04;29.45;;;15.88;;
44764;SDS011;30484;52.382;5.260;2023-05-10T07:07:33;28.27;;;14.85;;
44764;SDS011;30484;52.382;5.260;2023-05-10T07:10:04;26.50;;;14.38;;
44764;SDS011;30484;52.382;5.260;2023-05-10T07:12:33;23.52;;;13.30;;
44764;SDS011;30484;52.382;5.260;2023-05-10T07:15:02;22.25;;;13.00;;
44764;SDS011;30484;52.382;5.260;2023-05-10T07:17:31;20.45;;;11.93;;
44764;SDS011;30484;52.382;5.260;2023-05-10T07:20:00;21.92;;;12.40;;
44764;SDS011;30484;52.382;5.260;2023-05-10T07:22:29;20.98;;;11.57;;
44764;SDS011;30484;52.382;5.260;2023-05-10T07:24:58;19.40;;;11.38;;
44764;SDS011;30484;52.382;5.260;2023-05-10T07:27:28;18.35;;;11.98;;
44764;SDS011;30484;52.382;5.260;2023-05-10T07:29:56;24.05;;;11.70;;
44764;SDS011;30484;52.382;5.260;2023-05-10T07:32:24;21.75;;;11.85;;
44764;SDS011;30484;52.382;5.260;2023-05-10T07:34:53;19.20;;;11.57;;
44764;SDS011;30484;52.382;5.260;2023-05-10T07:37:22;18.90;;;11.43;;
44764;SDS011;30484;52.382;5.260;2023-05-10T07:39:50;19.77;;;10.30;;
44764;SDS011;30484;52.382;5.260;2023-05-10T07:42:18;16.40;;;10.38;;
44764;SDS011;30484;52.382;5.260;2023-05-10T07:44:48;13.90;;;9.00;;
44764;SDS011;30484;52.382;5.260;2023-05-10T07:47:17;15.60;;;8.60;;
44764;SDS011;30484;52.382;5.260;2023-05-10T07:49:45;16.88;;;9.35;;
44764;SDS011;30484;52.382;5.260;2023-05-10T07:52:14;14.65;;;8.90;;
44764;SDS011;30484;52.382;5.260;2023-05-10T07:54:42;15.18;;;9.38;;
44764;SDS011;30484;52.382;5.260;2023-05-10T07:57:10;18.42;;;8.75;;
44764;SDS011;30484;52.382;5.260;2023-05-10T07:59:40;15.63;;;8.40;;
44764;SDS011;30484;52.382;5.260;2023-05-10T08:02:10;17.35;;;8.50;;
44764;SDS011;30484;52.382;5.260;2023-05-10T08:04:39;13.55;;;8.85;;
44764;SDS011;30484;52.382;5.260;2023-05-10T08:07:07;18.05;;;8.85;;
44764;SDS011;30484;52.382;5.260;2023-05-10T08:09:35;13.98;;;8.68;;
44764;SDS011;30484;52.382;5.260;2023-05-10T08:12:04;15.15;;;8.07;;
44764;SDS011;30484;52.382;5.260;2023-05-10T08:14:33;13.82;;;9.15;;
44764;SDS011;30484;52.382;5.260;2023-05-10T08:17:02;15.07;;;8.85;;
44764;SDS011;30484;52.382;5.260;2023-05-10T08:19:32;14.13;;;8.35;;
44764;SDS011;30484;52.382;5.260;2023-05-10T08:22:01;18.33;;;9.73;;
44764;SDS011;30484;52.382;5.260;2023-05-10T08:24:29;13.70;;;8.48;;
44764;SDS011;30484;52.382;5.260;2023-05-10T08:26:58;13.85;;;8.88;;
44764;SDS011;30484;52.382;5.260;2023-05-10T08:29:27;16.05;;;9.05;;
44764;SDS011;30484;52.382;5.260;2023-05-10T08:32:04;18.13;;;10.55;;
44764;SDS011;30484;52.382;5.260;2023-05-10T08:34:33;19.00;;;9.98;;
44764;SDS011;30484;52.382;5.260;2023-05-10T08:37:02;16.70;;;10.10;;
44764;SDS011;30484;52.382;5.260;2023-05-10T08:39:33;17.48;;;9.85;;
44764;SDS011;30484;52.382;5.260;2023-05-10T08:42:03;21.58;;;10.10;;
44764;SDS011;30484;52.382;5.260;2023-05-10T08:44:32;13.80;;;8.77;;
44764;SDS011;30484;52.382;5.260;2023-05-10T08:47:04;15.65;;;9.43;;
44764;SDS011;30484;52.382;5.260;2023-05-10T08:49:35;14.52;;;8.73;;
44764;SDS011;30484;52.382;5.260;2023-05-10T08:52:05;16.90;;;9.13;;
44764;SDS011;30484;52.382;5.260;2023-05-10T08:54:34;16.25;;;8.35;;
44764;SDS011;30484;52.382;5.260;2023-05-10T08:57:03;15.73;;;8.48;;
44764;SDS011;30484;52.382;5.260;2023-05-10T08:59:32;14.38;;;8.25;;
44764;SDS011;30484;52.382;5.260;2023-05-10T09:02:01;13.82;;;8.48;;
44764;SDS011;30484;52.382;5.260;2023-05-10T09:04:31;14.88;;;8.50;;
44764;SDS011;30484;52.382;5.260;2023-05-10T09:07:02;15.55;;;8.90;;
44764;SDS011;30484;52.382;5.260;2023-05-10T09:09:31;17.13;;;10.40;;
44764;SDS011;30484;52.382;5.260;2023-05-10T09:11:59;14.85;;;10.00;;
44764;SDS011;30484;52.382;5.260;2023-05-10T09:14:28;15.77;;;10.98;;
44764;SDS011;30484;52.382;5.260;2023-05-10T09:16:58;16.85;;;10.60;;
44764;SDS011;30484;52.382;5.260;2023-05-10T09:19:27;17.70;;;8.63;;
44764;SDS011;30484;52.382;5.260;2023-05-10T09:21:57;12.57;;;7.25;;
44764;SDS011;30484;52.382;5.260;2023-05-10T09:24:26;10.40;;;7.07;;
44764;SDS011;30484;52.382;5.260;2023-05-10T09:26:57;13.90;;;8.82;;
44764;SDS011;30484;52.382;5.260;2023-05-10T09:29:26;14.07;;;8.30;;
44764;SDS011;30484;52.382;5.260;2023-05-10T09:32:06;11.95;;;7.80;;
44764;SDS011;30484;52.382;5.260;2023-05-10T09:34:39;13.85;;;9.10;;
44764;SDS011;30484;52.382;5.260;2023-05-10T09:37:10;16.50;;;9.80;;
44764;SDS011;30484;52.382;5.260;2023-05-10T09:39:38;12.25;;;8.48;;
44764;SDS011;30484;52.382;5.260;2023-05-10T09:42:08;17.17;;;9.43;;
44764;SDS011;30484;52.382;5.260;2023-05-10T09:44:38;15.88;;;10.00;;
44764;SDS011;30484;52.382;5.260;2023-05-10T09:47:07;18.23;;;10.10;;
44764;SDS011;30484;52.382;5.260;2023-05-10T09:49:35;19.65;;;10.50;;
44764;SDS011;30484;52.382;5.260;2023-05-10T09:52:04;20.05;;;10.60;;
44764;SDS011;30484;52.382;5.260;2023-05-10T09:54:36;15.80;;;10.77;;
44764;SDS011;30484;52.382;5.260;2023-05-10T09:57:05;17.67;;;11.65;;
44764;SDS011;30484;52.382;5.260;2023-05-10T09:59:45;20.05;;;11.70;;
44764;SDS011;30484;52.382;5.260;2023-05-10T10:02:15;18.90;;;11.93;;
44764;SDS011;30484;52.382;5.260;2023-05-10T10:04:44;19.48;;;12.32;;
44764;SDS011;30484;52.382;5.260;2023-05-10T10:07:17;16.08;;;11.73;;
44764;SDS011;30484;52.382;5.260;2023-05-10T10:09:53;19.15;;;11.30;;
44764;SDS011;30484;52.382;5.260;2023-05-10T10:12:22;20.75;;;11.45;;
44764;SDS011;30484;52.382;5.260;2023-05-10T10:14:50;16.52;;;10.75;;
44764;SDS011;30484;52.382;5.260;2023-05-10T10:17:19;16.15;;;10.75;;
44764;SDS011;30484;52.382;5.260;2023-05-10T10:19:49;13.10;;;9.43;;
44764;SDS011;30484;52.382;5.260;2023-05-10T10:22:17;19.20;;;9.75;;
44764;SDS011;30484;52.382;5.260;2023-05-10T10:24:46;13.30;;;9.77;;
44764;SDS011;30484;52.382;5.260;2023-05-10T10:27:19;13.70;;;8.98;;
44764;SDS011;30484;52.382;5.260;2023-05-10T10:29:58;13.05;;;8.05;;
44764;SDS011;30484;52.382;5.260;2023-05-10T10:32:38;11.48;;;7.63;;
44764;SDS011;30484;52.382;5.260;2023-05-10T10:35:42;11.02;;;7.03;;
44764;SDS011;30484;52.382;5.260;2023-05-10T10:38:13;9.13;;;6.03;;
44764;SDS011;30484;52.382;5.260;2023-05-10T10:40:44;10.43;;;6.57;;
44764;SDS011;30484;52.382;5.260;2023-05-10T10:43:24;13.35;;;7.25;;
44764;SDS011;30484;52.382;5.260;2023-05-10T10:46:12;9.23;;;6.03;;
44764;SDS011;30484;52.382;5.260;2023-05-10T10:48:47;11.45;;;6.07;;
44764;SDS011;30484;52.382;5.260;2023-05-10T10:53:45;9.15;;;5.97;;
44764;SDS011;30484;52.382;5.260;2023-05-10T10:56:15;12.77;;;6.35;;
44764;SDS011;30484;52.382;5.260;2023-05-10T10:58:51;9.52;;;6.20;;
44764;SDS011;30484;52.382;5.260;2023-05-10T11:01:20;8.52;;;6.10;;
44764;SDS011;30484;52.382;5.260;2023-05-10T11:04:16;8.15;;;6.60;;
44764;SDS011;30484;52.382;5.260;2023-05-10T11:06:47;11.15;;;6.90;;
44764;SDS011;30484;52.382;5.260;2023-05-10T11:09:15;10.65;;;7.07;;
44764;SDS011;30484;52.382;5.260;2023-05-10T11:11:53;9.48;;;6.15;;
44764;SDS011;30484;52.382;5.260;2023-05-10T11:14:23;7.50;;;5.22;;
44764;SDS011;30484;52.382;5.260;2023-05-10T11:16:52;10.95;;;5.30;;
44764;SDS011;30484;52.382;5.260;2023-05-10T11:19:21;12.07;;;6.28;;
44764;SDS011;30484;52.382;5.260;2023-05-10T11:24:41;9.25;;;5.10;;
44764;SDS011;30484;52.382;5.260;2023-05-10T11:27:24;7.88;;;5.28;;
44764;SDS011;30484;52.382;5.260;2023-05-10T11:29:54;10.23;;;4.72;;
44764;SDS011;30484;52.382;5.260;2023-05-10T11:32:22;10.27;;;5.00;;
44764;SDS011;30484;52.382;5.260;2023-05-10T11:34:51;8.55;;;4.65;;
44764;SDS011;30484;52.382;5.260;2023-05-10T11:37:19;7.22;;;4.40;;
44764;SDS011;30484;52.382;5.260;2023-05-10T11:39:47;8.20;;;4.32;;
44764;SDS011;30484;52.382;5.260;2023-05-10T11:42:16;7.78;;;3.97;;
44764;SDS011;30484;52.382;5.260;2023-05-10T11:44:45;8.40;;;4.30;;
44764;SDS011;30484;52.382;5.260;2023-05-10T11:47:15;6.78;;;4.40;;
44764;SDS011;30484;52.382;5.260;2023-05-10T11:49:43;8.27;;;5.50;;
44764;SDS011;30484;52.382;5.260;2023-05-10T11:52:12;11.48;;;6.35;;
44764;SDS011;30484;52.382;5.260;2023-05-10T11:54:44;10.43;;;5.63;;
44764;SDS011;30484;52.382;5.260;2023-05-10T11:57:18;11.98;;;6.00;;
44764;SDS011;30484;52.382;5.260;2023-05-10T11:59:47;12.48;;;6.35;;
44764;SDS011;30484;52.382;5.260;2023-05-10T12:02:21;10.20;;;6.07;;
44764;SDS011;30484;52.382;5.260;2023-05-10T12:04:50;11.98;;;6.10;;
44764;SDS011;30484;52.382;5.260;2023-05-10T12:07:19;11.02;;;6.10;;
44764;SDS011;30484;52.382;5.260;2023-05-10T12:10:02;13.65;;;6.82;;
44764;SDS011;30484;52.382;5.260;2023-05-10T12:12:36;10.68;;;6.95;;
44764;SDS011;30484;52.382;5.260;2023-05-10T12:15:11;13.70;;;7.70;;
44764;SDS011;30484;52.382;5.260;2023-05-10T12:17:46;14.77;;;8.30;;
44764;SDS011;30484;52.382;5.260;2023-05-10T12:20:16;12.63;;;8.55;;
44764;SDS011;30484;52.382;5.260;2023-05-10T12:22:47;16.80;;;8.75;;
44764;SDS011;30484;52.382;5.260;2023-05-10T12:25:18;18.40;;;8.70;;
44764;SDS011;30484;52.382;5.260;2023-05-10T12:27:48;18.13;;;9.60;;
44764;SDS011;30484;52.382;5.260;2023-05-10T12:30:19;16.85;;;8.00;;
44764;SDS011;30484;52.382;5.260;2023-05-10T12:32:50;17.38;;;7.50;;
44764;SDS011;30484;52.382;5.260;2023-05-10T12:35:20;12.68;;;7.90;;
44764;SDS011;30484;52.382;5.260;2023-05-10T12:37:50;13.77;;;7.50;;
44764;SDS011;30484;52.382;5.260;2023-05-10T12:40:19;14.07;;;7.25;;
44764;SDS011;30484;52.382;5.260;2023-05-10T12:42:47;12.95;;;7.45;;
44764;SDS011;30484;52.382;5.260;2023-05-10T12:45:17;13.13;;;6.93;;
44764;SDS011;30484;52.382;5.260;2023-05-10T12:47:46;13.07;;;7.10;;
44764;SDS011;30484;52.382;5.260;2023-05-10T12:50:15;10.93;;;6.35;;
44764;SDS011;30484;52.382;5.260;2023-05-10T12:52:44;13.43;;;5.63;;
44764;SDS011;30484;52.382;5.260;2023-05-10T12:55:12;8.77;;;5.30;;
44764;SDS011;30484;52.382;5.260;2023-05-10T12:57:41;8.98;;;4.70;;
44764;SDS011;30484;52.382;5.260;2023-05-10T13:00:09;7.40;;;4.28;;
44764;SDS011;30484;52.382;5.260;2023-05-10T13:02:39;5.80;;;3.60;;
44764;SDS011;30484;52.382;5.260;2023-05-10T13:05:07;7.85;;;4.28;;
44764;SDS011;30484;52.382;5.260;2023-05-10T13:07:37;6.45;;;3.70;;
44764;SDS011;30484;52.382;5.260;2023-05-10T13:10:06;8.60;;;3.60;;
44764;SDS011;30484;52.382;5.260;2023-05-10T13:12:34;5.78;;;2.97;;
44764;SDS011;30484;52.382;5.260;2023-05-10T13:15:06;6.22;;;3.22;;
44764;SDS011;30484;52.382;5.260;2023-05-10T13:17:35;9.38;;;3.60;;
44764;SDS011;30484;52.382;5.260;2023-05-10T13:20:05;5.47;;;3.20;;
44764;SDS011;30484;52.382;5.260;2023-05-10T13:22:35;7.65;;;4.35;;
44764;SDS011;30484;52.382;5.260;2023-05-10T13:25:06;13.10;;;4.82;;
44764;SDS011;30484;52.382;5.260;2023-05-10T13:27:35;8.48;;;4.53;;
44764;SDS011;30484;52.382;5.260;2023-05-10T13:30:04;8.55;;;4.75;;
44764;SDS011;30484;52.382;5.260;2023-05-10T13:32:34;10.48;;;5.30;;
44764;SDS011;30484;52.382;5.260;2023-05-10T13:35:03;14.32;;;6.68;;
44764;SDS011;30484;52.382;5.260;2023-05-10T13:37:32;11.18;;;6.78;;
44764;SDS011;30484;52.382;5.260;2023-05-10T13:40:05;12.52;;;6.85;;
44764;SDS011;30484;52.382;5.260;2023-05-10T13:42:36;12.32;;;7.05;;
44764;SDS011;30484;52.382;5.260;2023-05-10T13:45:04;11.88;;;6.05;;
44764;SDS011;30484;52.382;5.260;2023-05-10T13:47:34;11.88;;;6.30;;
44764;SDS011;30484;52.382;5.260;2023-05-10T13:50:02;11.32;;;5.88;;
44764;SDS011;30484;52.382;5.260;2023-05-10T13:52:32;12.07;;;5.88;;
44764;SDS011;30484;52.382;5.260;2023-05-10T13:55:00;9.77;;;5.22;;
44764;SDS011;30484;52.382;5.260;2023-05-10T13:57:30;9.75;;;5.30;;
44764;SDS011;30484;52.382;5.260;2023-05-10T14:00:00;8.63;;;5.28;;
44764;SDS011;30484;52.382;5.260;2023-05-10T14:02:29;11.82;;;6.13;;
44764;SDS011;30484;52.382;5.260;2023-05-10T14:05:00;11.57;;;6.57;;
44764;SDS011;30484;52.382;5.260;2023-05-10T14:07:29;11.23;;;6.90;;
44764;SDS011;30484;52.382;5.260;2023-05-10T14:09:58;10.85;;;6.45;;
44764;SDS011;30484;52.382;5.260;2023-05-10T14:12:27;13.63;;;6.43;;
44764;SDS011;30484;52.382;5.260;2023-05-10T14:14:57;10.55;;;5.78;;
44764;SDS011;30484;52.382;5.260;2023-05-10T14:17:26;11.15;;;5.80;;
44764;SDS011;30484;52.382;5.260;2023-05-10T14:19:54;9.32;;;5.18;;
44764;SDS011;30484;52.382;5.260;2023-05-10T14:22:23;10.10;;;5.20;;
44764;SDS011;30484;52.382;5.260;2023-05-10T14:24:51;12.93;;;6.18;;
44764;SDS011;30484;52.382;5.260;2023-05-10T14:27:20;13.57;;;6.53;;
44764;SDS011;30484;52.382;5.260;2023-05-10T14:29:50;9.85;;;6.15;;
44764;SDS011;30484;52.382;5.260;2023-05-10T14:32:19;8.98;;;5.47;;
44764;SDS011;30484;52.382;5.260;2023-05-10T14:34:47;10.63;;;5.50;;
44764;SDS011;30484;52.382;5.260;2023-05-10T14:37:16;12.02;;;6.05;;
44764;SDS011;30484;52.382;5.260;2023-05-10T14:39:44;9.15;;;5.38;;
44764;SDS011;30484;52.382;5.260;2023-05-10T14:42:14;11.45;;;5.15;;
44764;SDS011;30484;52.382;5.260;2023-05-10T14:44:43;9.02;;;4.93;;
44764;SDS011;30484;52.382;5.260;2023-05-10T14:47:13;7.65;;;4.65;;
44764;SDS011;30484;52.382;5.260;2023-05-10T14:49:41;9.35;;;5.00;;
44764;SDS011;30484;52.382;5.260;2023-05-10T14:52:13;11.25;;;7.35;;
44764;SDS011;30484;52.382;5.260;2023-05-10T14:54:41;14.13;;;8.75;;
44764;SDS011;30484;52.382;5.260;2023-05-10T14:57:10;15.15;;;9.07;;